KEET

Shelby County Airport

Alabaster, Alabama, USA
METAR KEET 230753Z AUTO 19005KT 10SM SCT050 20/18 A3035 RMK AO2 SLP272 T02000178
Observed Flight Rules
Feb-23 @ 07:53 UTC (35 minutes ago) Visual Flight Rules
Wind Visibility Clouds
190° at 5 knots 10 miles
  • Scattered at 5,000' AGL
Temperatures Readings
Current 20°C / 68°F
Dewpoint 18°C / 64°F
Humidity 88%
Altimeter 30.35" Hg
Pressure 1027.2 hPa
Elevation 173
METAR KEET 230753Z AUTO 19005KT 10SM SCT050 20/18 A3035 RMK AO2 SLP272 T02000178
Observed Flight Rules
Feb-23 @ 07:53 UTC
(35 minutes ago)
VFR
Wind Visibility
190° at 5 knots 10 miles
Clouds
  • Scattered at 5,000' AGL
Temperature Dewpoint
20°C / 68°F 18°C / 64°F
Humidity Altimeter Pressure
88% 30.35" Hg 1027.2 hPa